Terminal Aerodrome Forecast
Issued by NWS

Home | Current Version | Previous Version | Text Only | Print | Product List | Glossary Off
Versions: 1 2 3 4 5 6 7 8 9 10 11 12 13 14

000
FTUS43 KUNR 210301 AAB
TAFGCC
TAF AMD
KGCC 210301Z 2103/2124 29015KT P6SM SCT080 BKN150
     FM210800 20008KT P6SM SCT200
     FM211000 23008KT P6SM SCT250
     FM211400 32013KT P6SM FEW250
     FM211800 35012KT P6SM SCT250=

USA.gov is the U.S. government's official web portal to all federal, state and local government web resources and services.